Time;durP1;ratioP1;P1;durP2;ratioP2;P2;SDS_P1;SDS_P2;PMS_P1;PMS_P2;Temp;Humidity;BMP_temperature;BMP_pressure;BME280_temperature;BME280_humidity;BME280_pressure;Samples;Min_cycle;Max_cycle;Signal;HPM_P1;HPM_P2
2022/10/18 00:01:25;;;;;;;11.80;8.02;;;13.00;99.90;;;;;;4978623;28;20037;-77
2022/10/18 00:03:50;;;;;;;12.85;8.05;;;13.10;99.90;;;;;;4982971;28;20026;-77
2022/10/18 00:06:16;;;;;;;15.30;7.97;;;13.10;99.90;;;;;;4991195;28;20496;-76
2022/10/18 00:08:42;;;;;;;12.55;8.35;;;13.10;99.90;;;;;;4982970;28;20491;-76
2022/10/18 00:11:07;;;;;;;11.38;9.40;;;13.10;99.90;;;;;;4987343;28;20500;-77
2022/10/18 00:13:33;;;;;;;15.70;9.80;;;13.10;99.90;;;;;;4983870;22;436472;-71
2022/10/18 00:16:01;;;;;;;18.05;10.85;;;13.20;99.90;;;;;;4991464;28;20026;-71
2022/10/18 00:18:27;;;;;;;14.90;10.05;;;13.20;99.90;;;;;;4995291;28;20118;-72
2022/10/18 00:21:02;;;;;;;14.00;10.13;;;13.10;99.90;;;;;;4999134;28;20026;-71
2022/10/18 00:23:30;;;;;;;12.77;8.23;;;13.10;99.90;;;;;;4999043;28;20042;-71
2022/10/18 00:26:18;;;;;;;14.18;9.27;;;13.10;99.90;;;;;;4993968;28;20439;-71
2022/10/18 00:28:45;;;;;;;17.65;10.40;;;13.10;99.90;;;;;;4987194;28;20018;-71
2022/10/18 00:31:19;;;;;;;17.88;10.30;;;13.10;99.90;;;;;;4981869;28;20026;-71
2022/10/18 00:33:48;;;;;;;14.32;9.68;;;13.20;99.90;;;;;;4990068;28;20113;-71
2022/10/18 00:36:14;;;;;;;13.15;8.88;;;13.10;99.90;;;;;;4994198;28;20607;-71
2022/10/18 00:38:39;;;;;;;15.82;9.10;;;13.10;99.90;;;;;;4993894;28;20113;-71
2022/10/18 00:41:07;;;;;;;14.30;9.45;;;13.10;99.90;;;;;;4983850;28;20058;-72
2022/10/18 00:43:58;;;;;;;11.63;8.60;;;13.00;99.90;;;;;;4977862;28;20473;-73
2022/10/18 00:46:26;;;;;;;20.33;11.75;;;13.00;99.90;;;;;;4980140;28;20030;-74
2022/10/18 00:48:53;;;;;;;17.33;9.80;;;13.00;99.90;;;;;;4974329;28;20507;-72
2022/10/18 00:51:21;;;;;;;13.68;9.77;;;13.00;99.90;;;;;;4987638;28;20026;-71
2022/10/18 00:53:48;;;;;;;11.57;8.60;;;13.20;99.90;;;;;;4982176;28;20022;-72
2022/10/18 00:56:13;;;;;;;13.15;8.68;;;13.00;99.90;;;;;;4991264;28;20427;-71
2022/10/18 00:58:41;;;;;;;14.38;8.73;;;13.00;99.90;;;;;;4974114;28;20026;-71
2022/10/18 01:01:06;;;;;;;15.82;10.10;;;12.90;99.90;;;;;;4974856;28;20030;-71
2022/10/18 01:03:33;;;;;;;13.30;9.10;;;12.90;99.90;;;;;;4993612;28;20023;-71
2022/10/18 01:05:58;;;;;;;15.10;8.40;;;12.80;99.90;;;;;;4992073;28;20054;-71
2022/10/18 01:08:44;;;;;;;11.30;8.30;;;12.80;99.90;;;;;;4984035;28;20065;-73
2022/10/18 01:11:36;;;;;;;16.15;8.93;;;12.80;99.90;;;;;;4977248;28;20053;-72
2022/10/18 01:14:14;;;;;;;18.38;10.13;;;12.90;99.90;;;;;;4979128;28;20047;-72
2022/10/18 01:17:07;;;;;;;15.15;9.13;;;12.80;99.90;;;;;;4982518;28;20105;-72
2022/10/18 01:20:04;;;;;;;12.38;8.77;;;12.80;99.90;;;;;;4968368;28;20027;-72
2022/10/18 01:22:55;;;;;;;13.95;8.80;;;12.70;99.90;;;;;;4980492;28;20045;-75
2022/10/18 01:25:58;;;;;;;15.63;8.50;;;12.60;99.90;;;;;;4991509;28;20061;-75
2022/10/18 01:28:44;;;;;;;12.32;7.95;;;12.60;99.90;;;;;;4986862;28;20446;-75
2022/10/18 01:31:21;;;;;;;;;;;12.60;99.90;;;;;;4983107;28;20023;-73
2022/10/18 01:33:58;;;;;;;12.93;8.07;;;12.60;99.90;;;;;;4976449;28;20404;-75
2022/10/18 01:36:36;;;;;;;13.85;7.78;;;12.60;99.90;;;;;;4979755;28;20041;-75
2022/10/18 01:39:07;;;;;;;15.50;9.93;;;12.70;99.90;;;;;;4968857;28;20492;-73
2022/10/18 01:41:35;;;;;;;20.67;10.73;;;12.70;99.90;;;;;;4979019;28;20038;-75
2022/10/18 01:44:04;;;;;;;14.57;8.63;;;12.60;99.90;;;;;;4983301;28;20027;-75
2022/10/18 01:46:30;;;;;;;14.52;8.48;;;12.60;99.90;;;;;;4985167;28;20022;-75
2022/10/18 01:48:56;;;;;;;11.13;8.18;;;12.50;99.90;;;;;;4980821;28;20361;-76
2022/10/18 01:51:26;;;;;;;19.20;9.60;;;12.50;99.90;;;;;;4976365;28;20073;-75
2022/10/18 01:53:52;;;;;;;12.38;8.30;;;12.60;99.90;;;;;;4982706;28;20105;-75
2022/10/18 01:57:10;;;;;;;16.38;8.73;;;12.60;99.90;;;;;;4976789;28;20552;-75
2022/10/18 01:59:57;;;;;;;;;;;12.70;99.90;;;;;;4959815;28;20030;-75
2022/10/18 02:02:47;;;;;;;16.95;9.68;;;12.70;99.90;;;;;;4986107;28;19932;-75
2022/10/18 02:05:35;;;;;;;16.23;8.68;;;12.70;99.90;;;;;;4970469;28;20026;-75
2022/10/18 02:08:07;;;;;;;15.52;10.65;;;12.70;99.90;;;;;;4979452;28;20023;-73
2022/10/18 02:10:42;;;;;;;17.45;10.88;;;12.70;99.90;;;;;;4980439;28;20019;-73
2022/10/18 02:13:11;;;;;;;18.13;10.40;;;12.50;99.90;;;;;;4968232;28;20030;-75
2022/10/18 02:15:40;;;;;;;13.80;8.93;;;12.50;99.90;;;;;;4978203;28;20035;-73
2022/10/18 02:18:10;;;;;;;11.02;8.43;;;12.40;99.90;;;;;;4984684;28;20484;-73
2022/10/18 02:20:37;;;;;;;14.57;10.27;;;12.50;99.90;;;;;;4986243;28;20027;-74
2022/10/18 02:23:06;;;;;;;15.55;11.55;;;12.30;99.90;;;;;;4980514;28;20088;-73
2022/10/18 02:25:33;;;;;;;8.85;6.75;;;12.60;99.90;;;;;;4979388;28;20130;-74
2022/10/18 02:28:00;;;;;;;11.27;8.10;;;12.30;99.90;;;;;;4981859;28;20026;-73
2022/10/18 02:30:39;;;;;;;10.30;8.73;;;12.40;99.90;;;;;;4986062;28;20109;-76
2022/10/18 02:33:30;;;;;;;11.27;10.18;;;12.40;99.90;;;;;;4984288;28;20373;-74
2022/10/18 02:36:02;;;;;;;14.45;10.88;;;12.50;99.90;;;;;;4968139;28;20030;-76
2022/10/18 02:38:30;;;;;;;12.00;10.68;;;12.60;99.90;;;;;;4978986;28;20022;-74
2022/10/18 02:40:55;;;;;;;18.60;11.85;;;12.70;99.90;;;;;;4982297;28;20026;-73
2022/10/18 02:43:23;;;;;;;13.88;10.73;;;12.70;99.90;;;;;;4985954;28;20036;-77
2022/10/18 02:45:49;;;;;;;10.48;9.48;;;12.70;99.90;;;;;;4981311;28;20041;-76
2022/10/18 02:48:14;;;;;;;14.50;10.55;;;12.70;99.90;;;;;;4988455;28;20034;-75
2022/10/18 02:50:40;;;;;;;10.98;9.75;;;12.80;99.90;;;;;;4981510;28;20023;-76
2022/10/18 02:53:05;;;;;;;14.13;10.45;;;12.80;99.90;;;;;;4989999;28;20022;-74
2022/10/18 02:55:31;;;;;;;11.23;9.15;;;12.90;99.90;;;;;;4980097;28;20030;-75
2022/10/18 02:57:56;;;;;;;14.85;11.55;;;13.00;99.90;;;;;;4978984;28;20513;-73
2022/10/18 03:00:22;;;;;;;18.25;12.00;;;12.80;99.90;;;;;;4992236;28;20038;-74
2022/10/18 03:02:48;;;;;;;14.23;10.73;;;12.80;99.90;;;;;;4979195;28;20041;-74
2022/10/18 03:05:13;;;;;;;13.48;10.02;;;12.90;99.90;;;;;;4982850;28;20027;-74
2022/10/18 03:07:39;;;;;;;12.70;8.90;;;12.80;99.90;;;;;;4986793;28;20038;-72
2022/10/18 03:10:05;;;;;;;16.05;9.18;;;12.80;99.90;;;;;;4985273;28;20033;-72
2022/10/18 03:12:31;;;;;;;13.15;10.40;;;12.80;99.90;;;;;;4982801;28;20437;-72
2022/10/18 03:14:56;;;;;;;12.50;9.02;;;12.80;99.90;;;;;;4986582;28;20125;-73
2022/10/18 03:17:22;;;;;;;13.57;9.30;;;12.70;99.90;;;;;;4989216;28;20118;-73
2022/10/18 03:19:47;;;;;;;11.85;8.98;;;12.60;99.90;;;;;;4983895;28;20068;-73
2022/10/18 03:22:13;;;;;;;13.52;8.85;;;12.70;99.90;;;;;;4982598;28;20035;-72
2022/10/18 03:24:38;;;;;;;12.13;10.35;;;12.70;99.90;;;;;;4993156;28;20152;-72
2022/10/18 03:27:04;;;;;;;14.23;10.93;;;12.70;99.90;;;;;;4976076;28;20485;-72
2022/10/18 03:29:29;;;;;;;16.50;11.35;;;12.80;99.90;;;;;;4983577;28;20029;-73
2022/10/18 03:31:55;;;;;;;18.05;12.20;;;12.80;99.90;;;;;;4982305;28;20041;-73
2022/10/18 03:34:20;;;;;;;17.83;11.18;;;12.90;99.90;;;;;;4986665;28;20031;-74
2022/10/18 03:36:46;;;;;;;19.23;11.25;;;12.90;99.90;;;;;;4987558;28;20026;-75
2022/10/18 03:39:11;;;;;;;14.35;10.73;;;12.90;99.90;;;;;;4984220;28;20019;-73
2022/10/18 03:41:37;;;;;;;16.70;11.55;;;13.00;99.90;;;;;;4982050;28;20033;-73
2022/10/18 03:44:03;;;;;;;14.75;10.63;;;13.10;99.90;;;;;;4986960;28;20030;-73
2022/10/18 03:46:28;;;;;;;17.17;12.02;;;13.00;99.90;;;;;;4988646;28;20384;-74
2022/10/18 03:48:54;;;;;;;17.48;13.45;;;12.90;99.90;;;;;;4983663;28;20512;-73
2022/10/18 03:51:19;;;;;;;13.93;10.30;;;12.80;99.90;;;;;;4980616;28;20058;-73
2022/10/18 03:53:45;;;;;;;12.15;10.25;;;12.80;99.90;;;;;;4975637;28;20062;-73
2022/10/18 03:56:10;;;;;;;14.45;10.02;;;12.80;99.90;;;;;;4988585;28;20034;-74
2022/10/18 03:58:36;;;;;;;13.32;10.20;;;12.80;99.90;;;;;;4983126;28;20030;-74
2022/10/18 04:01:02;;;;;;;15.45;10.02;;;12.80;99.90;;;;;;4980740;28;20042;-73
2022/10/18 04:03:27;;;;;;;15.73;12.43;;;12.80;99.90;;;;;;4982127;28;20037;-74
2022/10/18 04:05:53;;;;;;;18.02;11.95;;;13.00;99.90;;;;;;4980494;28;20041;-74
2022/10/18 04:08:18;;;;;;;17.63;11.35;;;12.90;99.90;;;;;;4986869;28;20019;-74
2022/10/18 04:10:44;;;;;;;18.63;11.15;;;12.60;99.90;;;;;;4986933;28;20169;-74
2022/10/18 04:13:10;;;;;;;13.68;10.95;;;12.70;99.90;;;;;;4983230;28;20028;-74
2022/10/18 04:15:35;;;;;;;15.55;10.70;;;12.70;99.90;;;;;;4981303;28;20046;-74
2022/10/18 04:18:01;;;;;;;16.38;11.93;;;12.70;99.90;;;;;;4985863;28;20030;-75
2022/10/18 04:20:27;;;;;;;16.52;13.13;;;12.80;99.90;;;;;;4988144;28;20045;-74
2022/10/18 04:22:56;;;;;;;18.88;13.80;;;12.80;99.90;;;;;;4982765;28;20034;-73
2022/10/18 04:25:22;;;;;;;27.27;15.43;;;12.70;99.90;;;;;;4981120;28;20027;-74
2022/10/18 04:27:48;;;;;;;22.60;15.32;;;12.50;99.90;;;;;;4985287;28;20022;-74
2022/10/18 04:30:14;;;;;;;22.40;14.35;;;12.40;99.90;;;;;;4987882;28;20358;-75
2022/10/18 04:32:39;;;;;;;15.60;10.35;;;12.40;99.90;;;;;;4982550;28;20089;-75
2022/10/18 04:35:05;;;;;;;15.70;10.57;;;12.50;99.90;;;;;;4981184;28;20027;-75
2022/10/18 04:37:32;;;;;;;15.30;11.13;;;12.60;99.90;;;;;;4986512;28;20030;-75
2022/10/18 04:39:57;;;;;;;18.27;12.27;;;12.70;99.90;;;;;;4986378;28;20567;-74
2022/10/18 04:42:23;;;;;;;12.68;10.35;;;12.70;99.90;;;;;;4974656;28;20106;-74
2022/10/18 04:44:49;;;;;;;17.17;12.68;;;12.70;99.90;;;;;;4987707;28;20026;-74
2022/10/18 04:47:15;;;;;;;22.30;13.10;;;12.80;99.90;;;;;;4981768;28;20053;-74
2022/10/18 04:49:41;;;;;;;13.88;10.77;;;12.80;99.90;;;;;;4980929;28;20023;-72
2022/10/18 04:52:06;;;;;;;17.08;10.68;;;12.80;99.90;;;;;;4985517;28;20034;-73
2022/10/18 04:54:32;;;;;;;20.98;13.27;;;12.90;99.90;;;;;;4987400;28;20092;-74
2022/10/18 04:56:58;;;;;;;19.27;13.07;;;13.00;99.90;;;;;;4981709;28;20066;-72
2022/10/18 04:59:23;;;;;;;18.45;13.82;;;13.10;99.90;;;;;;4980130;28;20027;-72
2022/10/18 05:01:49;;;;;;;14.13;11.52;;;13.10;99.90;;;;;;4980523;28;20040;-73
2022/10/18 05:04:14;;;;;;;20.38;13.07;;;13.10;99.90;;;;;;4979650;28;20034;-72
2022/10/18 05:06:40;;;;;;;27.35;15.05;;;13.20;99.90;;;;;;4974261;28;20034;-71
2022/10/18 05:09:06;;;;;;;18.92;15.10;;;13.20;99.90;;;;;;4985933;28;20032;-73
2022/10/18 05:11:35;;;;;;;23.08;16.98;;;13.10;99.90;;;;;;4981286;28;20026;-72
2022/10/18 05:14:00;;;;;;;21.02;15.77;;;13.10;99.90;;;;;;4992391;28;20042;-74
2022/10/18 05:16:27;;;;;;;23.77;16.77;;;13.10;99.90;;;;;;4981684;28;20022;-72
2022/10/18 05:18:55;;;;;;;24.02;15.45;;;13.10;99.90;;;;;;4980231;28;20050;-74
2022/10/18 05:21:21;;;;;;;19.80;14.23;;;13.10;99.90;;;;;;4985722;28;20129;-74
2022/10/18 05:23:46;;;;;;;24.30;15.68;;;13.20;99.90;;;;;;4986916;28;20026;-73
2022/10/18 05:26:12;;;;;;;16.95;13.55;;;13.20;99.90;;;;;;4981457;28;20026;-74
2022/10/18 05:28:37;;;;;;;19.48;14.85;;;13.20;99.90;;;;;;4980008;28;20163;-74
2022/10/18 05:31:05;;;;;;;20.63;13.85;;;13.20;99.90;;;;;;4985647;28;20392;-74
2022/10/18 05:33:31;;;;;;;15.45;12.65;;;13.20;99.90;;;;;;4985322;28;20105;-74
2022/10/18 05:35:57;;;;;;;16.27;12.13;;;13.20;99.90;;;;;;4979915;28;20515;-74
2022/10/18 05:38:23;;;;;;;20.90;13.88;;;13.10;99.90;;;;;;4990890;28;20084;-74
2022/10/18 05:40:49;;;;;;;15.02;12.45;;;13.20;99.90;;;;;;4979535;28;20026;-74
2022/10/18 05:43:16;;;;;;;16.10;12.20;;;13.20;99.90;;;;;;4979948;28;20034;-74
2022/10/18 05:45:47;;;;;;;16.58;12.35;;;13.30;99.90;;;;;;4984094;28;20114;-74
2022/10/18 05:48:13;;;;;;;17.58;12.85;;;13.40;99.90;;;;;;4987953;28;20022;-71
2022/10/18 05:50:38;;;;;;;17.40;11.35;;;13.40;99.90;;;;;;4983230;28;20027;-74
2022/10/18 05:53:04;;;;;;;20.38;13.23;;;13.40;99.90;;;;;;4986319;28;20030;-74
2022/10/18 05:55:29;;;;;;;20.02;13.07;;;13.40;99.90;;;;;;4980281;28;20022;-74
2022/10/18 05:57:55;;;;;;;14.52;11.93;;;13.40;99.90;;;;;;4979485;28;20667;-74
2022/10/18 06:00:20;;;;;;;18.92;12.70;;;13.40;99.90;;;;;;4982866;28;20481;-74
2022/10/18 06:02:46;;;;;;;20.58;14.30;;;13.40;99.90;;;;;;4984916;28;20073;-75
2022/10/18 06:05:11;;;;;;;25.55;15.75;;;13.50;99.90;;;;;;4981747;28;20089;-74
2022/10/18 06:07:37;;;;;;;24.92;15.20;;;13.20;99.90;;;;;;4979537;28;20027;-74
2022/10/18 06:10:02;;;;;;;23.92;16.48;;;13.10;99.90;;;;;;4982799;28;20378;-74
2022/10/18 06:12:28;;;;;;;23.80;17.25;;;13.00;99.90;;;;;;4974151;28;20030;-74
2022/10/18 06:14:54;;;;;;;27.08;20.00;;;13.10;99.90;;;;;;5035920;23;20132;-76
2022/10/18 06:17:19;;;;;;;32.28;23.27;;;13.20;99.90;;;;;;5022167;28;20025;-75
2022/10/18 06:19:45;;;;;;;40.38;26.35;;;13.10;99.90;;;;;;5029702;28;20402;-75
2022/10/18 06:22:11;;;;;;;105.10;64.07;;;13.20;99.90;;;;;;5014807;28;20479;-73
2022/10/18 06:24:36;;;;;;;357.75;186.60;;;13.20;99.90;;;;;;5011721;28;20052;-73
2022/10/18 06:27:07;;;;;;;224.30;122.05;;;13.20;99.90;;;;;;5009801;28;20475;-76
2022/10/18 06:29:37;;;;;;;150.90;80.80;;;13.30;99.90;;;;;;5025250;28;20029;-78
2022/10/18 06:32:03;;;;;;;35.42;24.42;;;13.40;99.90;;;;;;5025226;28;20065;-77
2022/10/18 06:34:29;;;;;;;22.52;17.42;;;13.30;99.90;;;;;;5022066;28;20076;-77
2022/10/18 06:36:55;;;;;;;28.02;16.75;;;13.30;99.90;;;;;;5018194;28;20025;-77
2022/10/18 06:39:20;;;;;;;22.42;15.18;;;13.40;99.90;;;;;;5015036;28;20022;-75
2022/10/18 06:41:46;;;;;;;19.75;15.52;;;13.40;99.90;;;;;;5028521;28;20029;-76
2022/10/18 06:44:15;;;;;;;21.38;15.63;;;13.50;99.90;;;;;;5025165;28;20041;-76
2022/10/18 06:46:42;;;;;;;27.10;16.15;;;13.50;99.90;;;;;;5025340;28;20500;-76
2022/10/18 06:49:09;;;;;;;24.00;18.83;;;13.50;99.90;;;;;;5026593;28;20029;-75
2022/10/18 06:51:34;;;;;;;24.45;16.70;;;13.50;99.90;;;;;;5030052;28;20076;-75
2022/10/18 06:54:00;;;;;;;24.27;16.35;;;13.60;99.90;;;;;;5014038;28;20018;-73
2022/10/18 06:56:26;;;;;;;23.83;18.30;;;13.70;99.90;;;;;;5015398;28;20033;-73
2022/10/18 06:58:52;;;;;;;21.30;16.10;;;13.70;99.90;;;;;;5015483;28;20033;-74
2022/10/18 07:01:17;;;;;;;24.95;16.92;;;13.60;99.90;;;;;;5029614;28;20026;-74
2022/10/18 07:03:45;;;;;;;20.55;16.27;;;13.90;99.90;;;;;;5025155;28;20084;-75
2022/10/18 07:06:12;;;;;;;18.05;14.60;;;13.90;99.90;;;;;;5017253;28;20395;-75
2022/10/18 07:08:38;;;;;;;19.58;14.35;;;13.90;99.90;;;;;;5025462;28;20372;-75
2022/10/18 07:11:05;;;;;;;19.02;13.77;;;14.00;99.90;;;;;;5020196;28;20022;-75
2022/10/18 07:13:32;;;;;;;17.33;13.43;;;14.10;99.90;;;;;;5025374;28;20116;-75
2022/10/18 07:16:04;;;;;;;18.23;14.10;;;14.20;99.90;;;;;;5017865;28;20588;-78
2022/10/18 07:18:30;;;;;;;18.77;15.05;;;14.30;99.90;;;;;;5026205;28;20026;-77
2022/10/18 07:20:56;;;;;;;20.02;14.57;;;14.30;99.90;;;;;;5030522;28;20497;-76
2022/10/18 07:23:22;;;;;;;19.13;14.43;;;14.30;99.90;;;;;;5026561;28;20105;-76
2022/10/18 07:25:48;;;;;;;21.58;15.85;;;14.40;99.90;;;;;;5020330;28;20021;-76
2022/10/18 07:28:14;;;;;;;20.58;12.82;;;14.40;99.90;;;;;;5023184;28;20029;-74
2022/10/18 07:30:39;;;;;;;20.45;14.45;;;14.50;99.90;;;;;;5027201;28;20026;-74
2022/10/18 07:33:05;;;;;;;16.65;12.80;;;14.60;99.90;;;;;;5013759;28;20484;-73
2022/10/18 07:35:31;;;;;;;18.25;11.77;;;14.60;99.90;;;;;;5017959;28;20030;-74
2022/10/18 07:37:56;;;;;;;20.13;12.25;;;14.70;99.90;;;;;;5023279;28;20029;-75
2022/10/18 07:40:22;;;;;;;15.30;11.35;;;14.60;99.90;;;;;;5028169;28;20026;-73
2022/10/18 07:42:47;;;;;;;17.70;12.05;;;14.60;99.90;;;;;;5024567;28;20475;-75
2022/10/18 07:45:13;;;;;;;16.73;11.77;;;14.60;99.90;;;;;;5016740;28;20037;-75
2022/10/18 07:47:39;;;;;;;15.90;11.23;;;14.60;99.90;;;;;;5013242;28;20025;-76
2022/10/18 07:50:05;;;;;;;16.75;11.50;;;14.60;99.90;;;;;;5026581;28;20060;-74
2022/10/18 07:52:30;;;;;;;12.27;10.27;;;14.60;99.90;;;;;;5024507;28;20025;-73
2022/10/18 07:54:56;;;;;;;15.07;11.05;;;14.70;99.90;;;;;;5028872;28;20533;-74
2022/10/18 07:57:22;;;;;;;12.23;10.77;;;14.70;99.90;;;;;;5014248;28;20356;-74
2022/10/18 07:59:51;;;;;;;16.83;11.75;;;14.80;99.90;;;;;;5024750;28;20034;-77
2022/10/18 08:02:16;;;;;;;12.25;9.65;;;15.00;99.90;;;;;;5009649;28;20555;-75
2022/10/18 08:04:42;;;;;;;16.70;10.10;;;15.00;99.90;;;;;;5025569;28;20116;-76
2022/10/18 08:07:08;;;;;;;14.73;8.98;;;15.30;99.90;;;;;;5013418;28;20045;-75
2022/10/18 08:09:33;;;;;;;13.73;8.90;;;15.50;99.90;;;;;;5027158;28;20080;-76
2022/10/18 08:11:59;;;;;;;12.55;8.23;;;15.70;99.90;;;;;;5024771;28;20039;-76
2022/10/18 08:14:24;;;;;;;14.32;8.57;;;15.60;99.90;;;;;;5015922;28;20038;-73
2022/10/18 08:16:50;;;;;;;12.23;8.85;;;15.70;99.90;;;;;;5022978;28;20078;-75
2022/10/18 08:19:15;;;;;;;18.58;7.85;;;15.70;99.90;;;;;;5020797;28;20037;-74
2022/10/18 08:21:41;;;;;;;13.27;7.88;;;15.80;99.90;;;;;;5023257;28;20136;-75
2022/10/18 08:24:06;;;;;;;10.68;7.13;;;15.80;99.90;;;;;;5017869;28;20075;-75
2022/10/18 08:26:32;;;;;;;12.73;7.63;;;15.80;99.90;;;;;;5021849;28;20024;-74
2022/10/18 08:28:57;;;;;;;12.55;7.70;;;15.80;99.90;;;;;;5027239;28;20387;-74
2022/10/18 08:31:23;;;;;;;11.43;7.30;;;15.90;99.90;;;;;;5012654;28;20021;-74
2022/10/18 08:33:49;;;;;;;9.35;7.00;;;16.00;99.90;;;;;;5013797;28;20026;-75
2022/10/18 08:36:15;;;;;;;10.57;6.95;;;16.20;99.90;;;;;;5012718;28;20026;-75
2022/10/18 08:38:42;;;;;;;12.38;7.60;;;16.30;99.90;;;;;;5026913;28;20029;-75
2022/10/18 08:41:41;;;;;;;10.32;7.20;;;16.30;99.90;;;;;;5023070;28;20041;-75
2022/10/18 08:44:19;;;;;;;12.02;6.68;;;16.30;99.90;;;;;;4992866;28;20030;-75
2022/10/18 08:46:50;;;;;;;8.60;6.40;;;16.40;99.90;;;;;;5023586;28;20100;-77
2022/10/18 08:49:33;;;;;;;9.00;6.93;;;16.50;99.90;;;;;;5012496;28;20434;-76
2022/10/18 08:51:59;;;;;;;9.95;6.80;;;16.50;99.90;;;;;;5007158;28;20018;-75
2022/10/18 08:54:36;;;;;;;12.30;6.65;;;16.60;99.90;;;;;;5020089;28;20025;-75
2022/10/18 08:57:09;;;;;;;10.15;5.57;;;16.70;99.90;;;;;;5008320;28;20060;-75
2022/10/18 08:59:40;;;;;;;11.68;6.70;;;16.80;99.90;;;;;;5017636;28;20550;-75
2022/10/18 09:02:29;;;;;;;11.77;6.70;;;17.00;99.90;;;;;;5013675;28;20488;-77
2022/10/18 09:05:33;;;;;;;8.88;6.07;;;17.20;99.90;;;;;;5024612;28;20018;-74
2022/10/18 09:08:13;;;;;;;8.40;6.05;;;17.20;99.90;;;;;;5017740;28;20049;-75
2022/10/18 09:10:54;;;;;;;7.40;5.57;;;17.30;99.90;;;;;;5019417;28;20515;-74
2022/10/18 09:13:50;;;;;;;11.98;7.05;;;17.30;99.90;;;;;;5022368;28;20025;-74
2022/10/18 09:16:53;;;;;;;13.20;6.63;;;17.40;99.90;;;;;;5026138;28;20411;-74
2022/10/18 09:19:45;;;;;;;11.05;5.78;;;17.40;99.90;;;;;;5024809;28;20119;-74
2022/10/18 09:22:13;;;;;;;10.50;7.50;;;17.50;99.90;;;;;;5018106;28;20403;-74
2022/10/18 09:24:44;;;;;;;11.70;6.72;;;17.60;99.90;;;;;;5023876;28;20026;-75
2022/10/18 09:27:18;;;;;;;10.70;6.97;;;17.60;99.90;;;;;;5014476;28;20022;-75
2022/10/18 09:30:08;;;;;;;10.93;6.45;;;17.50;99.90;;;;;;5022110;28;20014;-76
2022/10/18 09:33:04;;;;;;;10.40;6.45;;;17.60;99.90;;;;;;5007751;28;20074;-73
2022/10/18 09:35:37;;;;;;;8.95;6.47;;;17.50;99.90;;;;;;5017636;28;20442;-75
2022/10/18 09:38:09;;;;;;;10.95;6.13;;;17.40;99.90;;;;;;5020275;28;20088;-76
2022/10/18 09:40:42;;;;;;;8.60;6.20;;;17.30;99.90;;;;;;5026043;28;20018;-76
2022/10/18 09:43:22;;;;;;;11.13;6.20;;;17.30;99.90;;;;;;5026049;28;20031;-76
2022/10/18 09:45:50;;;;;;;12.07;6.25;;;17.60;99.90;;;;;;5011192;28;20048;-76
2022/10/18 09:48:29;;;;;;;10.00;5.75;;;17.20;99.90;;;;;;5025524;28;20095;-75
2022/10/18 09:51:00;;;;;;;9.18;5.80;;;17.20;99.90;;;;;;5012485;28;20022;-75
2022/10/18 09:53:52;;;;;;;7.82;5.85;;;17.30;99.90;;;;;;5025658;28;20041;-75
2022/10/18 09:56:25;;;;;;;9.75;6.70;;;17.20;99.90;;;;;;5025419;28;20695;-75
2022/10/18 09:58:51;;;;;;;10.35;6.40;;;17.30;99.90;;;;;;5022398;28;20037;-77
2022/10/18 10:01:30;;;;;;;10.75;6.22;;;17.20;99.90;;;;;;5018719;28;20112;-74
2022/10/18 10:03:56;;;;;;;10.73;6.63;;;17.30;99.90;;;;;;5019274;28;20026;-75
2022/10/18 10:06:24;;;;;;;9.75;6.45;;;17.20;99.90;;;;;;5025392;28;20091;-75
2022/10/18 10:08:57;;;;;;;10.15;7.13;;;17.20;99.90;;;;;;5022293;28;20078;-75
2022/10/18 10:11:28;;;;;;;12.07;6.75;;;17.10;99.90;;;;;;5017374;28;20498;-75
2022/10/18 10:14:08;;;;;;;10.55;6.90;;;17.10;99.90;;;;;;5018683;28;20033;-75
2022/10/18 10:16:49;;;;;;;15.25;8.05;;;17.10;99.90;;;;;;5000465;28;20623;-75
2022/10/18 10:19:17;;;;;;;12.02;7.30;;;17.10;99.90;;;;;;5019641;28;20045;-74
2022/10/18 10:21:43;;;;;;;10.32;6.65;;;17.40;99.90;;;;;;5026223;28;20045;-74
2022/10/18 10:24:25;;;;;;;13.85;7.25;;;17.30;99.90;;;;;;5026612;28;20017;-75
2022/10/18 10:26:58;;;;;;;10.60;7.78;;;17.10;99.90;;;;;;5018517;28;20022;-74
2022/10/18 10:29:45;;;;;;;8.38;6.82;;;16.90;99.90;;;;;;4999741;28;20026;-74
2022/10/18 10:32:19;;;;;;;13.70;6.53;;;16.90;99.90;;;;;;5025233;28;20030;-75
2022/10/18 10:34:45;;;;;;;8.32;6.40;;;16.90;99.90;;;;;;5011852;28;20034;-75
2022/10/18 10:37:32;;;;;;;10.38;6.93;;;17.00;99.90;;;;;;5027777;28;20113;-75
2022/10/18 10:40:16;;;;;;;13.95;7.40;;;16.90;99.90;;;;;;5024796;28;20107;-75
2022/10/18 10:43:00;;;;;;;12.00;7.35;;;16.80;99.90;;;;;;5021782;28;20026;-75
2022/10/18 10:45:28;;;;;;;13.98;8.23;;;16.90;99.90;;;;;;5025036;28;20033;-75
2022/10/18 10:48:01;;;;;;;13.52;8.35;;;17.00;99.90;;;;;;5011434;28;20048;-74
2022/10/18 10:50:28;;;;;;;12.57;8.23;;;17.10;99.90;;;;;;4998543;28;20145;-75
2022/10/18 10:52:54;;;;;;;14.57;8.45;;;17.30;99.90;;;;;;5012073;28;20025;-74
2022/10/18 10:55:30;;;;;;;12.68;9.10;;;17.30;99.90;;;;;;5027570;28;20025;-74
2022/10/18 10:57:56;;;;;;;12.57;9.05;;;17.40;99.90;;;;;;5023073;28;20394;-75
2022/10/18 11:00:42;;;;;;;14.15;8.98;;;17.40;99.90;;;;;;5011716;28;20097;-75
2022/10/18 11:03:22;;;;;;;11.70;8.82;;;17.40;99.90;;;;;;5010307;28;20021;-75
2022/10/18 11:05:59;;;;;;;13.02;8.70;;;17.10;99.90;;;;;;5017406;28;20025;-75
2022/10/18 11:08:30;;;;;;;12.73;7.88;;;17.20;99.90;;;;;;5004450;28;20018;-76
2022/10/18 11:11:21;;;;;;;9.55;7.05;;;17.20;99.90;;;;;;5024040;28;20029;-75
2022/10/18 11:14:12;;;;;;;12.27;7.88;;;17.10;99.90;;;;;;5031191;28;20034;-74
2022/10/18 11:16:49;;;;;;;12.32;7.45;;;17.10;99.90;;;;;;5011159;28;20026;-74
2022/10/18 11:19:46;;;;;;;9.85;7.18;;;17.20;99.90;;;;;;5013378;28;20046;-74
2022/10/18 11:22:17;;;;;;;12.27;7.45;;;17.20;99.90;;;;;;5011584;28;20388;-75
2022/10/18 11:24:43;;;;;;;11.07;7.13;;;17.30;99.90;;;;;;5021042;28;20458;-75
2022/10/18 11:27:26;;;;;;;10.00;7.85;;;17.20;99.90;;;;;;5013331;28;20068;-74
2022/10/18 11:30:28;;;;;;;9.25;7.53;;;17.00;99.90;;;;;;5013040;28;20032;-74
2022/10/18 11:33:23;;;;;;;10.35;7.60;;;17.00;99.90;;;;;;5014458;28;20022;-74
2022/10/18 11:35:58;;;;;;;11.80;7.78;;;16.80;99.90;;;;;;5011771;28;20402;-76
2022/10/18 11:38:49;;;;;;;9.15;7.07;;;16.90;99.90;;;;;;5019508;28;20084;-76
2022/10/18 11:41:54;;;;;;;9.50;7.30;;;17.00;99.90;;;;;;5021922;28;20026;-76
2022/10/18 11:44:39;;;;;;;11.27;7.50;;;17.10;99.90;;;;;;5004111;28;20029;-75
2022/10/18 11:47:26;;;;;;;11.75;7.88;;;17.10;99.90;;;;;;5006985;28;20106;-77
2022/10/18 11:50:26;;;;;;;9.15;7.22;;;17.10;99.90;;;;;;5019955;28;20021;-76
2022/10/18 11:53:19;;;;;;;11.27;7.47;;;17.10;99.90;;;;;;5029727;28;20030;-76
2022/10/18 11:56:11;;;;;;;10.82;7.15;;;17.10;99.90;;;;;;5025910;28;20025;-75
2022/10/18 11:58:55;;;;;;;10.25;7.57;;;17.10;99.90;;;;;;4994728;28;20439;-75
2022/10/18 12:01:33;;;;;;;13.73;7.38;;;17.20;99.90;;;;;;5024652;28;20025;-75
2022/10/18 12:04:16;;;;;;;10.70;7.68;;;17.10;99.90;;;;;;5026245;28;20032;-75
2022/10/18 12:06:45;;;;;;;8.73;6.40;;;17.10;99.90;;;;;;5010068;28;20061;-75
2022/10/18 12:09:33;;;;;;;10.50;6.90;;;17.20;99.90;;;;;;5019432;28;20519;-75
2022/10/18 12:12:19;;;;;;;9.15;6.85;;;17.10;99.90;;;;;;5013008;28;20030;-76
2022/10/18 12:14:48;;;;;;;;;;;17.00;99.90;;;;;;5029132;23;20046;-73
2022/10/18 12:17:34;;;;;;;10.85;6.50;;;17.20;99.90;;;;;;5000490;28;20402;-73
2022/10/18 12:20:11;;;;;;;9.73;5.63;;;17.30;99.90;;;;;;5004623;28;20033;-73
2022/10/18 12:22:58;;;;;;;7.95;5.53;;;17.40;99.90;;;;;;5007574;28;20031;-73
2022/10/18 12:25:24;;;;;;;8.85;5.03;;;17.40;99.90;;;;;;5006401;28;20109;-73
2022/10/18 12:27:56;;;;;;;5.80;4.43;;;17.30;99.90;;;;;;5001532;28;20500;-73
2022/10/18 12:30:41;;;;;;;7.07;4.82;;;17.30;99.90;;;;;;5000815;28;20061;-73
2022/10/18 12:33:13;;;;;;;5.07;4.10;;;17.30;99.90;;;;;;5003621;28;20026;-73
2022/10/18 12:35:54;;;;;;;5.40;4.43;;;17.30;99.90;;;;;;4994229;28;20030;-73
2022/10/18 12:38:32;;;;;;;6.35;4.70;;;17.10;99.90;;;;;;5006870;28;20030;-73
2022/10/18 12:40:58;;;;;;;4.82;4.32;;;17.10;99.90;;;;;;4985066;28;20392;-72
2022/10/18 12:43:31;;;;;;;8.25;4.35;;;17.20;99.90;;;;;;5005967;28;20026;-73
2022/10/18 12:45:59;;;;;;;5.78;4.47;;;17.40;99.90;;;;;;5001379;28;20495;-73
2022/10/18 12:48:37;;;;;;;4.90;4.07;;;17.30;99.90;;;;;;5000344;28;20058;-73
2022/10/18 12:51:17;;;;;;;7.90;4.05;;;17.20;99.90;;;;;;5002530;28;20022;-72
2022/10/18 12:54:10;;;;;;;5.72;3.63;;;17.20;99.90;;;;;;5012921;28;20018;-72
2022/10/18 12:56:41;;;;;;;5.97;4.45;;;17.40;99.90;;;;;;4995835;28;20220;-73